createdAt,value
2023-09-09T00:00:38.012Z,78.48
2023-09-09T00:01:38.015Z,78.28
2023-09-09T00:02:37.971Z,78.48
2023-09-09T00:03:38.200Z,77.98
2023-09-09T00:04:37.929Z,78.08
2023-09-09T00:05:37.924Z,78.48
2023-09-09T00:06:37.932Z,78.28
2023-09-09T00:07:37.854Z,78.08
2023-09-09T00:08:37.832Z,78.18
2023-09-09T00:09:37.848Z,78.08
2023-09-09T00:10:37.821Z,77.87
2023-09-09T00:11:37.807Z,78.18
2023-09-09T00:12:37.782Z,77.78
2023-09-09T00:13:38.057Z,77.58
2023-09-09T00:14:37.714Z,77.48
2023-09-09T00:15:37.767Z,77.28
2023-09-09T00:16:37.795Z,77.28
2023-09-09T00:17:38.673Z,77.17
2023-09-09T00:18:37.630Z,76.98
2023-09-09T00:19:37.612Z,76.87
2023-09-09T00:20:37.624Z,76.98
2023-09-09T00:21:37.578Z,76.87
2023-09-09T00:22:37.556Z,76.14
2023-09-09T00:23:37.750Z,76.98
2023-09-09T00:24:37.589Z,76.67
2023-09-09T00:25:37.529Z,76.17
2023-09-09T00:26:37.482Z,75.97
2023-09-09T00:27:37.450Z,76.07
2023-09-09T00:28:37.484Z,75.37
2023-09-09T00:29:37.452Z,75.47
2023-09-09T00:30:37.397Z,74.87
2023-09-09T00:31:37.446Z,74.77
2023-09-09T00:32:37.381Z,74.67
2023-09-09T00:33:37.520Z,75.07
2023-09-09T00:34:37.348Z,74.37
2023-09-09T00:35:37.296Z,74.57
2023-09-09T00:36:37.278Z,74.60
2023-09-09T00:37:37.263Z,74.57
2023-09-09T00:38:37.263Z,74.30
2023-09-09T00:39:37.242Z,74.07
2023-09-09T00:40:37.228Z,74.67
2023-09-09T00:41:38.170Z,74.17
2023-09-09T00:42:37.151Z,74.01
2023-09-09T00:43:37.340Z,74.07
2023-09-09T00:44:37.116Z,74.60
2023-09-09T00:45:37.092Z,74.40
2023-09-09T00:46:37.167Z,74.67
2023-09-09T00:47:37.199Z,74.71
2023-09-09T00:48:37.114Z,74.30
2023-09-09T00:49:37.013Z,74.27
2023-09-09T00:50:37.018Z,75.21
2023-09-09T00:51:36.974Z,75.01
2023-09-09T00:52:37.018Z,75.01
2023-09-09T00:53:37.261Z,74.51
2023-09-09T00:54:36.944Z,74.40
2023-09-09T00:55:36.910Z,74.37
2023-09-09T00:56:36.873Z,74.10
2023-09-09T00:57:36.886Z,75.10
2023-09-09T00:58:36.924Z,74.40
2023-09-09T00:59:36.818Z,74.47
2023-09-09T01:00:36.794Z,74.01
2023-09-09T01:01:36.845Z,74.20
2023-09-09T01:02:36.928Z,74.20
2023-09-09T01:03:37.328Z,74.30
2023-09-09T01:04:36.757Z,74.20
2023-09-09T01:05:36.694Z,74.60
2023-09-09T01:06:36.702Z,74.10
2023-09-09T01:07:36.664Z,73.50
2023-09-09T01:08:36.635Z,73.90
2023-09-09T01:09:36.614Z,74.10
2023-09-09T01:10:36.594Z,74.30
2023-09-09T01:11:36.607Z,73.67
2023-09-09T01:12:36.554Z,74.27
2023-09-09T01:13:37.009Z,73.40
2023-09-09T01:14:36.646Z,73.20
2023-09-09T01:15:36.528Z,73.00
2023-09-09T01:16:36.543Z,73.60
2023-09-09T01:17:36.579Z,74.30
2023-09-09T01:18:36.432Z,73.50
2023-09-09T01:19:36.409Z,74.01
2023-09-09T01:20:36.458Z,73.00
2023-09-09T01:21:36.407Z,73.80
2023-09-09T01:22:36.357Z,73.54
2023-09-09T01:23:36.685Z,73.80
2023-09-09T01:24:36.316Z,73.20
2023-09-09T01:25:36.328Z,73.70
2023-09-09T01:26:36.300Z,73.70
2023-09-09T01:27:36.252Z,73.70
2023-09-09T01:28:36.247Z,73.24
2023-09-09T01:29:36.252Z,74.30
2023-09-09T01:30:36.229Z,74.10
2023-09-09T01:31:36.288Z,74.04
2023-09-09T01:32:37.325Z,74.84
2023-09-09T01:33:36.399Z,74.24
2023-09-09T01:34:36.136Z,74.24
2023-09-09T01:35:37.106Z,74.44
2023-09-09T01:36:36.095Z,74.14
2023-09-09T01:37:36.094Z,74.54
2023-09-09T01:38:36.041Z,74.34
2023-09-09T01:39:36.092Z,74.24
2023-09-09T01:40:35.999Z,73.84
2023-09-09T01:41:36.001Z,74.24
2023-09-09T01:42:35.988Z,73.84
2023-09-09T01:43:36.223Z,73.60
2023-09-09T01:44:35.964Z,74.40
2023-09-09T01:45:35.919Z,74.51
2023-09-09T01:46:35.960Z,73.70
2023-09-09T01:47:35.907Z,73.70
2023-09-09T01:48:35.878Z,73.70
2023-09-09T01:49:35.811Z,73.80
2023-09-09T01:50:35.796Z,73.70
2023-09-09T01:51:35.781Z,73.60
2023-09-09T01:52:35.751Z,73.60
2023-09-09T01:53:36.002Z,74.14
2023-09-09T01:54:35.715Z,74.54
2023-09-09T01:55:35.719Z,74.74
2023-09-09T01:56:35.681Z,74.14
2023-09-09T01:57:35.701Z,74.44
2023-09-09T01:58:35.642Z,74.74
2023-09-09T01:59:35.703Z,75.04
2023-09-09T02:00:35.616Z,74.94
2023-09-09T02:01:35.628Z,74.98
2023-09-09T02:02:35.680Z,75.68
2023-09-09T02:03:35.882Z,74.27
2023-09-09T02:04:35.529Z,74.98
2023-09-09T02:05:35.497Z,74.91
2023-09-09T02:06:35.476Z,74.51
2023-09-09T02:07:35.479Z,75.11
2023-09-09T02:08:36.304Z,74.98
2023-09-09T02:09:35.410Z,75.18
2023-09-09T02:10:35.390Z,74.77
2023-09-09T02:11:35.412Z,74.37
2023-09-09T02:12:35.396Z,74.68
2023-09-09T02:13:35.480Z,74.18
2023-09-09T02:14:35.311Z,74.68
2023-09-09T02:15:35.327Z,74.07
2023-09-09T02:16:35.381Z,74.07
2023-09-09T02:17:35.270Z,74.48
2023-09-09T02:18:35.244Z,74.48
2023-09-09T02:19:35.273Z,74.37
2023-09-09T02:20:35.186Z,74.48
2023-09-09T02:21:35.198Z,74.71
2023-09-09T02:22:35.142Z,74.71
2023-09-09T02:23:35.365Z,74.91
2023-09-09T02:24:35.112Z,75.42
2023-09-09T02:25:35.166Z,75.11
2023-09-09T02:26:35.091Z,75.31
2023-09-09T02:27:35.041Z,75.68
2023-09-09T02:28:35.099Z,75.82
2023-09-09T02:29:35.173Z,75.58
2023-09-09T02:30:35.108Z,75.62
2023-09-09T02:31:35.097Z,75.62
2023-09-09T02:32:35.081Z,75.92
2023-09-09T02:33:35.149Z,75.92
2023-09-09T02:34:34.895Z,76.02
2023-09-09T02:35:35.043Z,75.92
2023-09-09T02:36:34.860Z,76.52
2023-09-09T02:37:34.834Z,76.02
2023-09-09T02:38:34.813Z,76.25
2023-09-09T02:39:34.891Z,76.72
2023-09-09T02:40:34.798Z,76.21
2023-09-09T02:41:34.753Z,76.12
2023-09-09T02:42:34.751Z,76.02
2023-09-09T02:43:34.955Z,75.92
2023-09-09T02:44:34.746Z,76.12
2023-09-09T02:45:34.669Z,75.92
2023-09-09T02:46:34.756Z,75.82
2023-09-09T02:47:34.622Z,75.92
2023-09-09T02:48:34.606Z,75.92
2023-09-09T02:49:34.638Z,76.62
2023-09-09T02:50:34.559Z,76.21
2023-09-09T02:51:34.538Z,76.52
2023-09-09T02:52:34.545Z,76.25
2023-09-09T02:53:34.638Z,75.92
2023-09-09T02:54:34.503Z,75.92
2023-09-09T02:55:34.493Z,75.71
2023-09-09T02:56:34.435Z,76.32
2023-09-09T02:57:34.419Z,75.92
2023-09-09T02:58:34.450Z,75.42
2023-09-09T02:59:34.392Z,76.02
2023-09-09T03:00:34.354Z,75.51
2023-09-09T03:01:34.460Z,76.12
2023-09-09T03:02:34.386Z,76.21
2023-09-09T03:03:34.486Z,76.05
2023-09-09T03:04:34.283Z,75.95
2023-09-09T03:05:34.252Z,75.95
2023-09-09T03:06:34.276Z,76.15
2023-09-09T03:07:35.248Z,75.95
2023-09-09T03:08:34.234Z,76.65
2023-09-09T03:09:34.175Z,76.25
2023-09-09T03:10:34.189Z,76.25
2023-09-09T03:11:34.135Z,76.25
2023-09-09T03:12:34.193Z,76.56
2023-09-09T03:13:34.097Z,77.06
2023-09-09T03:14:34.079Z,76.76
2023-09-09T03:15:34.052Z,76.76
2023-09-09T03:16:34.050Z,76.56
2023-09-09T03:17:34.075Z,77.29
2023-09-09T03:18:34.039Z,77.06
2023-09-09T03:19:33.963Z,77.59
2023-09-09T03:20:33.968Z,77.20
2023-09-09T03:21:33.919Z,77.09
2023-09-09T03:22:33.930Z,77.70
2023-09-09T03:23:33.880Z,77.50
2023-09-09T03:24:33.861Z,77.50
2023-09-09T03:25:33.878Z,77.29
2023-09-09T03:26:33.941Z,77.50
2023-09-09T03:27:33.804Z,77.29
2023-09-09T03:28:33.785Z,77.59
2023-09-09T03:29:33.874Z,77.59
2023-09-09T03:30:33.735Z,77.29
2023-09-09T03:31:33.754Z,77.39
2023-09-09T03:32:33.727Z,76.76
2023-09-09T03:33:33.704Z,77.20
2023-09-09T03:34:33.656Z,77.09
2023-09-09T03:35:33.662Z,76.79
2023-09-09T03:36:33.645Z,76.65
2023-09-09T03:37:33.600Z,76.59
2023-09-09T03:38:33.573Z,75.95
2023-09-09T03:39:33.582Z,76.25
2023-09-09T03:40:33.559Z,75.95
2023-09-09T03:41:33.542Z,76.15
2023-09-09T03:42:33.492Z,75.95
2023-09-09T03:43:33.665Z,76.45
2023-09-09T03:44:33.454Z,75.38
2023-09-09T03:45:33.487Z,75.75
2023-09-09T03:46:33.459Z,75.75
2023-09-09T03:47:33.459Z,75.15
2023-09-09T03:48:33.413Z,75.35
2023-09-09T03:49:33.385Z,75.38
2023-09-09T03:50:33.357Z,75.29
2023-09-09T03:51:33.307Z,76.09
2023-09-09T03:52:33.375Z,75.99
2023-09-09T03:53:33.287Z,75.25
2023-09-09T03:54:33.282Z,75.99
2023-09-09T03:55:33.236Z,75.68
2023-09-09T03:56:33.203Z,76.19
2023-09-09T03:57:33.186Z,75.95
2023-09-09T03:58:33.170Z,75.05
2023-09-09T03:59:33.169Z,75.15
2023-09-09T04:00:33.170Z,74.74
2023-09-09T04:01:33.172Z,75.25
2023-09-09T04:02:33.098Z,74.85
2023-09-09T04:03:33.239Z,75.05
2023-09-09T04:04:33.147Z,74.95
2023-09-09T04:05:33.011Z,75.05
2023-09-09T04:06:32.991Z,74.44
2023-09-09T04:07:33.008Z,75.15
2023-09-09T04:08:33.048Z,74.55
2023-09-09T04:09:32.927Z,74.55
2023-09-09T04:10:32.916Z,74.31
2023-09-09T04:11:32.884Z,74.44
2023-09-09T04:12:32.873Z,74.61
2023-09-09T04:13:32.919Z,75.01
2023-09-09T04:14:32.831Z,74.71
2023-09-09T04:15:32.808Z,74.71
2023-09-09T04:16:32.876Z,74.81
2023-09-09T04:17:32.887Z,74.51
2023-09-09T04:18:45.094Z,75.01
2023-09-09T04:19:34.764Z,74.91
2023-09-09T04:20:32.706Z,74.91
2023-09-09T04:21:32.686Z,75.01
2023-09-09T04:22:32.702Z,75.15
2023-09-09T04:23:32.645Z,75.82
2023-09-09T04:24:32.674Z,75.45
2023-09-09T04:25:32.604Z,75.75
2023-09-09T04:26:32.604Z,75.95
2023-09-09T04:27:32.639Z,76.35
2023-09-09T04:28:32.536Z,76.86
2023-09-09T04:29:33.521Z,77.06
2023-09-09T04:30:32.519Z,76.96
2023-09-09T04:31:32.514Z,77.26
2023-09-09T04:32:32.547Z,76.86
2023-09-09T04:33:32.436Z,77.16
2023-09-09T04:34:32.418Z,77.16
2023-09-09T04:35:32.399Z,77.39
2023-09-09T04:36:32.402Z,77.16
2023-09-09T04:37:32.358Z,77.36
2023-09-09T04:38:32.345Z,77.36
2023-09-09T04:39:32.313Z,77.16
2023-09-09T04:40:32.294Z,77.50
2023-09-09T04:41:32.301Z,77.06
2023-09-09T04:42:32.253Z,77.56
2023-09-09T04:43:32.233Z,76.96
2023-09-09T04:44:32.209Z,76.76
2023-09-09T04:45:32.405Z,77.06
2023-09-09T04:46:32.215Z,76.65
2023-09-09T04:47:32.180Z,76.35
2023-09-09T04:48:32.197Z,76.35
2023-09-09T04:49:32.135Z,76.42
2023-09-09T04:50:32.126Z,75.92
2023-09-09T04:51:32.067Z,75.75
2023-09-09T04:52:32.900Z,75.92
2023-09-09T04:53:32.033Z,75.71
2023-09-09T04:54:32.011Z,75.71
2023-09-09T04:55:32.047Z,74.81
2023-09-09T04:56:31.969Z,74.81
2023-09-09T04:57:31.943Z,75.11
2023-09-09T04:58:31.985Z,74.98
2023-09-09T04:59:31.935Z,74.07
2023-09-09T05:00:31.920Z,74.77
2023-09-09T05:01:31.965Z,73.84
2023-09-09T05:02:31.900Z,73.54
2023-09-09T05:03:31.856Z,73.20
2023-09-09T05:04:31.875Z,71.36
2023-09-09T05:05:31.787Z,70.53
2023-09-09T05:06:31.770Z,69.79
2023-09-09T05:07:31.749Z,69.16
2023-09-09T05:08:31.737Z,68.62
2023-09-09T05:09:31.754Z,68.29
2023-09-09T05:10:31.690Z,66.96
2023-09-09T05:11:31.684Z,66.53
2023-09-09T05:12:31.691Z,66.47
2023-09-09T05:13:31.696Z,65.34
2023-09-09T05:14:31.647Z,64.51
2023-09-09T05:15:31.600Z,63.35
2023-09-09T05:16:31.680Z,62.13
2023-09-09T05:17:31.622Z,61.30
2023-09-09T05:18:31.571Z,60.84
2023-09-09T05:19:31.611Z,59.62
2023-09-09T05:20:31.508Z,58.67
2023-09-09T05:21:31.493Z,58.54
2023-09-09T05:22:31.494Z,57.32
2023-09-09T05:23:31.478Z,57.10
2023-09-09T05:24:33.472Z,55.88
2023-09-09T05:25:31.419Z,54.94
2023-09-09T05:26:31.409Z,54.32
2023-09-09T05:27:31.424Z,53.80
2023-09-09T05:28:31.386Z,53.38
2023-09-09T05:29:31.348Z,52.98
2023-09-09T05:30:31.330Z,53.57
2023-09-09T05:31:32.417Z,53.15
2023-09-09T05:32:32.416Z,52.70
2023-09-09T05:33:31.351Z,52.21
2023-09-09T05:34:31.261Z,51.57
2023-09-09T05:35:31.239Z,50.95
2023-09-09T05:36:31.253Z,50.44
2023-09-09T05:37:31.244Z,49.82
2023-09-09T05:38:31.189Z,49.48
2023-09-09T05:39:31.168Z,48.77
2023-09-09T05:40:31.149Z,47.69
2023-09-09T05:41:31.165Z,47.47
2023-09-09T05:42:31.153Z,47.15
2023-09-09T05:43:31.097Z,47.13
2023-09-09T05:44:31.086Z,46.22
2023-09-09T05:45:31.102Z,46.71
2023-09-09T05:46:31.197Z,46.71
2023-09-09T05:47:31.048Z,46.81
2023-09-09T05:48:31.014Z,46.78
2023-09-09T05:49:38.754Z,46.17
2023-09-09T05:50:33.010Z,46.15
2023-09-09T05:51:30.989Z,45.64
2023-09-09T05:52:31.019Z,44.44
2023-09-09T05:53:31.091Z,43.73
2023-09-09T05:54:30.910Z,43.52
2023-09-09T05:55:30.918Z,44.48
2023-09-09T05:56:30.909Z,43.03
2023-09-09T05:57:30.857Z,42.71
2023-09-09T05:58:30.839Z,43.59
2023-09-09T05:59:30.905Z,43.38
2023-09-09T06:00:30.839Z,43.75
2023-09-09T06:01:30.799Z,43.24
2023-09-09T06:02:30.803Z,43.33
2023-09-09T06:03:30.809Z,43.32
2023-09-09T06:04:30.851Z,42.46
2023-09-09T06:05:30.755Z,42.85
2023-09-09T06:06:30.707Z,42.38
2023-09-09T06:07:30.688Z,42.79
2023-09-09T06:08:30.679Z,43.85
2023-09-09T06:09:30.688Z,43.92
2023-09-09T06:10:30.686Z,42.73
2023-09-09T06:11:30.622Z,43.43
2023-09-09T06:12:30.622Z,42.80
2023-09-09T06:13:31.630Z,42.88
2023-09-09T06:14:30.605Z,41.89
2023-09-09T06:15:30.552Z,42.28
2023-09-09T06:16:30.595Z,42.25
2023-09-09T06:17:30.564Z,42.66
2023-09-09T06:18:30.559Z,42.94
2023-09-09T06:19:30.517Z,42.24
2023-09-09T06:20:30.477Z,43.82
2023-09-09T06:21:30.452Z,45.07
2023-09-09T06:22:30.439Z,44.09
2023-09-09T06:23:30.457Z,43.53
2023-09-09T06:24:30.405Z,43.32
2023-09-09T06:25:30.392Z,43.95
2023-09-09T06:26:30.386Z,43.71
2023-09-09T06:27:30.392Z,42.99
2023-09-09T06:28:30.404Z,42.10
2023-09-09T06:29:30.527Z,41.69
2023-09-09T06:30:30.318Z,41.42
2023-09-09T06:31:30.399Z,42.49
2023-09-09T06:32:30.450Z,42.35
2023-09-09T06:33:30.275Z,42.15
2023-09-09T06:34:30.263Z,41.78
2023-09-09T06:35:30.326Z,41.93
2023-09-09T06:36:30.218Z,41.05
2023-09-09T06:37:30.238Z,41.10
2023-09-09T06:38:30.226Z,42.25
2023-09-09T06:39:30.168Z,39.75
2023-09-09T06:40:30.153Z,40.89
2023-09-09T06:41:30.178Z,42.03
2023-09-09T06:42:30.160Z,40.67
2023-09-09T06:43:30.115Z,41.16
2023-09-09T06:44:30.089Z,42.40
2023-09-09T06:45:30.879Z,40.77
2023-09-09T06:46:30.146Z,41.33
2023-09-09T06:47:30.129Z,39.57
2023-09-09T06:48:30.184Z,40.61
2023-09-09T06:49:30.015Z,41.12
2023-09-09T06:50:30.024Z,39.53
2023-09-09T06:51:30.012Z,36.72
2023-09-09T06:52:29.975Z,36.51
2023-09-09T06:53:30.055Z,39.80
2023-09-09T06:54:29.941Z,36.62
2023-09-09T06:55:29.957Z,35.36
2023-09-09T06:56:29.937Z,35.42
2023-09-09T06:57:29.889Z,36.36
2023-09-09T06:58:29.878Z,38.32
2023-09-09T06:59:29.859Z,39.65
2023-09-09T07:00:29.866Z,40.81
2023-09-09T07:01:29.828Z,41.42
2023-09-09T07:02:29.867Z,38.23
2023-09-09T07:03:29.866Z,36.04
2023-09-09T07:04:29.821Z,37.05
2023-09-09T07:05:29.791Z,34.57
2023-09-09T07:06:29.759Z,34.52
2023-09-09T07:07:33.565Z,35.36
2023-09-09T07:08:31.748Z,35.40
2023-09-09T07:09:29.735Z,36.43
2023-09-09T07:10:29.717Z,35.13
2023-09-09T07:11:29.678Z,35.75
2023-09-09T07:12:29.686Z,38.13
2023-09-09T07:13:29.652Z,36.18
2023-09-09T07:14:31.512Z,36.29
2023-09-09T07:16:29.657Z,37.90
2023-09-09T07:17:29.601Z,36.30
2023-09-09T07:18:29.600Z,35.98
2023-09-09T07:19:29.589Z,35.40
2023-09-09T07:20:29.560Z,36.83
2023-09-09T07:21:29.527Z,35.93
2023-09-09T07:22:29.515Z,34.55
2023-09-09T07:23:29.523Z,34.73
2023-09-09T07:24:29.515Z,35.00
2023-09-09T07:25:29.667Z,35.18
2023-09-09T07:26:29.449Z,35.08
2023-09-09T07:27:29.429Z,35.57
2023-09-09T07:28:29.443Z,35.18
2023-09-09T07:29:29.437Z,35.57
2023-09-09T07:30:29.394Z,35.45
2023-09-09T07:31:29.462Z,36.32
2023-09-09T07:32:29.431Z,35.84
2023-09-09T07:33:29.368Z,37.63
2023-09-09T07:34:29.329Z,36.51
2023-09-09T07:35:29.316Z,37.71
2023-09-09T07:36:29.297Z,38.58
2023-09-09T07:37:29.442Z,36.91
2023-09-09T07:38:30.299Z,36.91
2023-09-09T07:39:29.275Z,36.51
2023-09-09T07:40:29.243Z,36.68
2023-09-09T07:41:29.228Z,36.18
2023-09-09T07:42:29.246Z,36.65
2023-09-09T07:43:29.205Z,36.16
2023-09-09T07:44:29.187Z,36.53
2023-09-09T07:45:29.173Z,36.53
2023-09-09T07:46:29.155Z,37.02
2023-09-09T07:47:29.203Z,35.29
2023-09-09T07:48:29.120Z,36.47
2023-09-09T07:49:29.103Z,36.08
2023-09-09T07:50:29.150Z,36.57
2023-09-09T07:51:29.104Z,36.16
2023-09-09T07:52:29.092Z,35.97
2023-09-09T07:53:29.049Z,36.88
2023-09-09T07:54:29.031Z,37.79
2023-09-09T07:55:30.524Z,36.60
2023-09-09T07:56:29.028Z,37.94
2023-09-09T07:57:28.997Z,37.28
2023-09-09T07:58:28.973Z,37.92
2023-09-09T07:59:28.958Z,39.78
2023-09-09T08:00:29.004Z,38.52
2023-09-09T08:01:28.987Z,37.57
2023-09-09T08:02:28.937Z,38.06
2023-09-09T08:03:28.993Z,39.69
2023-09-09T08:04:28.914Z,39.18
2023-09-09T08:05:28.889Z,38.29
2023-09-09T08:06:28.883Z,39.72
2023-09-09T08:07:28.841Z,39.82
2023-09-09T08:08:28.816Z,40.89
2023-09-09T08:09:28.803Z,39.51
2023-09-09T08:10:28.815Z,40.39
2023-09-09T08:11:28.777Z,40.58
2023-09-09T08:12:28.754Z,42.05
2023-09-09T08:13:28.743Z,40.79
2023-09-09T08:14:28.754Z,41.36
2023-09-09T08:15:40.025Z,40.62
2023-09-09T08:16:33.661Z,42.80
2023-09-09T08:17:28.683Z,41.13
2023-09-09T08:18:28.681Z,41.90
2023-09-09T08:19:28.712Z,41.10
2023-09-09T08:20:28.630Z,40.21
2023-09-09T08:21:28.613Z,42.90
2023-09-09T08:22:28.633Z,42.29
2023-09-09T08:23:28.594Z,42.36
2023-09-09T08:24:28.605Z,42.66
2023-09-09T08:25:28.551Z,42.56
2023-09-09T08:26:28.577Z,42.36
2023-09-09T08:27:28.525Z,41.20
2023-09-09T08:28:28.542Z,40.50
2023-09-09T08:29:28.517Z,40.50
2023-09-09T08:30:28.475Z,41.10
2023-09-09T08:31:28.508Z,42.10
2023-09-09T08:32:28.502Z,41.59
2023-09-09T08:33:28.459Z,39.57
2023-09-09T08:34:28.413Z,42.86
2023-09-09T08:35:28.407Z,41.79
2023-09-09T08:36:28.381Z,42.21
2023-09-09T08:37:28.370Z,40.64
2023-09-09T08:38:28.451Z,41.01
2023-09-09T08:39:28.335Z,38.09
2023-09-09T08:40:28.318Z,39.12
2023-09-09T08:41:28.349Z,39.88
2023-09-09T08:42:28.315Z,38.81
2023-09-09T08:43:28.301Z,39.22
2023-09-09T08:44:28.271Z,38.06
2023-09-09T08:45:28.267Z,38.32
2023-09-09T08:46:28.225Z,38.04
2023-09-09T08:47:29.527Z,40.25
2023-09-09T08:48:29.248Z,38.54
2023-09-09T08:49:28.176Z,41.28
2023-09-09T08:50:28.174Z,40.85
2023-09-09T08:51:28.147Z,40.64
2023-09-09T08:52:28.187Z,43.10
2023-09-09T08:53:28.112Z,42.20
2023-09-09T08:54:28.103Z,42.41
2023-09-09T08:55:28.098Z,41.71
2023-09-09T08:56:28.100Z,41.89
2023-09-09T08:57:28.169Z,40.41
2023-09-09T08:58:28.039Z,39.69
2023-09-09T08:59:28.027Z,38.60
2023-09-09T09:00:28.030Z,39.76
2023-09-09T09:01:28.151Z,38.60
2023-09-09T09:02:28.030Z,39.65
2023-09-09T09:03:28.037Z,38.39
2023-09-09T09:04:28.048Z,38.09
2023-09-09T09:05:27.973Z,38.81
2023-09-09T09:06:27.958Z,39.29
2023-09-09T09:07:27.916Z,39.28
2023-09-09T09:08:27.921Z,40.64
2023-09-09T09:09:27.877Z,39.69
2023-09-09T09:10:27.907Z,41.28
2023-09-09T09:11:27.873Z,41.13
2023-09-09T09:12:27.830Z,43.02
2023-09-09T09:13:27.825Z,44.09
2023-09-09T09:14:27.794Z,45.30
2023-09-09T09:15:27.804Z,47.67
2023-09-09T09:16:27.762Z,46.79
2023-09-09T09:17:27.795Z,45.83
2023-09-09T09:18:27.788Z,46.03
2023-09-09T09:19:27.720Z,46.98
2023-09-09T09:20:27.723Z,44.15
2023-09-09T09:21:27.691Z,47.35
2023-09-09T09:22:27.664Z,50.32
2023-09-09T09:23:27.648Z,50.37
2023-09-09T09:24:28.128Z,47.30
2023-09-09T09:25:27.649Z,47.74
2023-09-09T09:26:27.632Z,46.37
2023-09-09T09:27:27.590Z,49.36
2023-09-09T09:28:27.570Z,48.30
2023-09-09T09:29:27.613Z,48.43
2023-09-09T09:30:29.340Z,50.24
2023-09-09T09:31:28.649Z,49.06
2023-09-09T09:32:27.546Z,51.12
2023-09-09T09:33:27.558Z,49.80
2023-09-09T09:34:27.506Z,51.18
2023-09-09T09:35:27.469Z,49.75
2023-09-09T09:36:27.452Z,52.11
2023-09-09T09:37:27.457Z,49.70
2023-09-09T09:38:27.444Z,50.49
2023-09-09T09:39:27.423Z,49.21
2023-09-09T09:40:27.377Z,47.49
2023-09-09T09:41:27.370Z,48.16
2023-09-09T09:42:27.365Z,46.37
2023-09-09T09:43:27.357Z,45.15
2023-09-09T09:44:27.353Z,48.48
2023-09-09T09:45:27.290Z,47.20
2023-09-09T09:46:27.288Z,47.11
2023-09-09T09:47:27.286Z,46.13
2023-09-09T09:48:27.279Z,44.44
2023-09-09T09:49:27.222Z,45.39
2023-09-09T09:50:27.209Z,51.49
2023-09-09T09:51:27.192Z,49.24
2023-09-09T09:52:27.248Z,47.49
2023-09-09T09:53:27.185Z,47.89
2023-09-09T09:54:27.186Z,47.42
2023-09-09T09:55:27.126Z,49.33
2023-09-09T09:56:27.110Z,49.13
2023-09-09T09:57:27.117Z,47.25
2023-09-09T09:58:27.102Z,47.74
2023-09-09T09:59:27.065Z,48.62
2023-09-09T10:00:27.053Z,47.15
2023-09-09T10:01:27.049Z,48.43
2023-09-09T10:02:27.063Z,46.61
2023-09-09T10:03:26.982Z,50.85
2023-09-09T10:04:26.995Z,48.40
2023-09-09T10:05:26.963Z,46.97
2023-09-09T10:06:26.978Z,48.52
2023-09-09T10:07:26.935Z,47.22
2023-09-09T10:08:26.904Z,46.93
2023-09-09T10:09:26.885Z,47.03
2023-09-09T10:10:26.871Z,50.93
2023-09-09T10:11:26.888Z,50.59
2023-09-09T10:12:42.177Z,51.23
2023-09-09T10:13:28.853Z,51.35
2023-09-09T10:14:26.805Z,51.23
2023-09-09T10:15:26.805Z,49.30
2023-09-09T10:16:26.936Z,49.55
2023-09-09T10:17:26.767Z,47.29
2023-09-09T10:18:26.726Z,48.08
2023-09-09T10:19:26.707Z,49.70
2023-09-09T10:20:27.730Z,49.75
2023-09-09T10:21:40.390Z,50.56
2023-09-09T10:22:28.662Z,51.20
2023-09-09T10:23:26.642Z,55.24
2023-09-09T10:24:26.622Z,50.98
2023-09-09T10:25:26.783Z,50.85
2023-09-09T10:26:26.614Z,51.25
2023-09-09T10:27:26.612Z,49.85
2023-09-09T10:28:26.669Z,51.12
2023-09-09T10:29:26.608Z,51.99
2023-09-09T10:30:26.571Z,51.20
2023-09-09T10:31:26.560Z,50.61
2023-09-09T10:32:26.483Z,49.62
2023-09-09T10:33:26.468Z,49.35
2023-09-09T10:34:26.486Z,49.38
2023-09-09T10:35:26.463Z,49.28
2023-09-09T10:36:26.421Z,48.83
2023-09-09T10:37:26.399Z,50.12
2023-09-09T10:38:26.380Z,47.24
2023-09-09T10:39:26.531Z,49.35
2023-09-09T10:40:26.351Z,47.88
2023-09-09T10:41:26.325Z,47.61
2023-09-09T10:42:26.323Z,49.06
2023-09-09T10:43:26.328Z,48.67
2023-09-09T10:44:26.332Z,47.19
2023-09-09T10:45:26.261Z,48.65
2023-09-09T10:46:26.301Z,48.35
2023-09-09T10:47:26.258Z,47.29
2023-09-09T10:48:26.246Z,48.71
2023-09-09T10:49:26.191Z,52.78
2023-09-09T10:50:26.242Z,50.51
2023-09-09T10:51:26.147Z,49.01
2023-09-09T10:52:26.139Z,49.21
2023-09-09T10:53:26.140Z,47.24
2023-09-09T10:54:26.123Z,50.16
2023-09-09T10:55:26.072Z,49.55
2023-09-09T10:56:27.062Z,48.67
2023-09-09T10:57:26.110Z,47.09
2023-09-09T10:58:26.052Z,48.39
2023-09-09T10:59:26.019Z,47.34
2023-09-09T11:00:25.986Z,49.45
2023-09-09T11:01:26.040Z,50.56
2023-09-09T11:02:26.046Z,48.10
2023-09-09T11:03:25.931Z,48.54
2023-09-09T11:04:25.966Z,50.83
2023-09-09T11:05:25.972Z,48.69
2023-09-09T11:06:25.993Z,50.44
2023-09-09T11:07:25.882Z,50.34
2023-09-09T11:08:25.861Z,53.00
2023-09-09T11:09:25.816Z,49.73
2023-09-09T11:10:25.811Z,47.68
2023-09-09T11:11:25.820Z,47.36
2023-09-09T11:12:25.789Z,47.41
2023-09-09T11:13:25.748Z,49.10
2023-09-09T11:14:25.727Z,49.10
2023-09-09T11:15:25.714Z,49.40
2023-09-09T11:16:25.801Z,50.68
2023-09-09T11:17:25.724Z,48.22
2023-09-09T11:18:25.663Z,48.10
2023-09-09T11:19:25.648Z,49.38
2023-09-09T11:20:25.818Z,49.10
2023-09-09T11:21:25.673Z,51.07
2023-09-09T11:22:25.595Z,51.00
2023-09-09T11:23:25.609Z,53.86
2023-09-09T11:24:25.573Z,49.60
2023-09-09T11:25:25.572Z,48.39
2023-09-09T11:26:25.550Z,49.77
2023-09-09T11:27:25.512Z,49.26
2023-09-09T11:28:25.518Z,48.37
2023-09-09T11:29:36.305Z,47.66
2023-09-09T11:30:27.476Z,47.53
2023-09-09T11:31:25.479Z,49.60
2023-09-09T11:32:25.598Z,47.92
2023-09-09T11:33:25.469Z,47.83
2023-09-09T11:34:25.406Z,49.52
2023-09-09T11:35:25.390Z,48.86
2023-09-09T11:36:25.359Z,51.03
2023-09-09T11:37:26.526Z,50.02
2023-09-09T11:38:25.329Z,51.40
2023-09-09T11:39:25.313Z,52.09
2023-09-09T11:40:25.272Z,47.66
2023-09-09T11:41:25.262Z,47.85
2023-09-09T11:42:25.229Z,48.32
2023-09-09T11:43:25.243Z,49.23
2023-09-09T11:44:25.273Z,49.50
2023-09-09T11:45:25.196Z,49.50
2023-09-09T11:46:25.211Z,47.34
2023-09-09T11:47:25.143Z,47.92
2023-09-09T11:48:25.167Z,47.24
2023-09-09T11:49:25.116Z,47.02
2023-09-09T11:50:25.110Z,47.61
2023-09-09T11:51:25.098Z,47.14
2023-09-09T11:52:25.064Z,46.55
2023-09-09T11:53:25.098Z,46.92
2023-09-09T11:54:25.011Z,49.68
2023-09-09T11:55:24.990Z,45.03
2023-09-09T11:56:24.974Z,48.49
2023-09-09T11:57:24.990Z,50.46
2023-09-09T11:58:24.983Z,49.08
2023-09-09T11:59:24.923Z,47.92
2023-09-09T12:00:24.907Z,50.39
2023-09-09T12:01:25.010Z,51.37
2023-09-09T12:02:25.052Z,52.26
2023-09-09T12:03:24.875Z,48.91
2023-09-09T12:04:25.995Z,49.26
2023-09-09T12:05:27.267Z,51.99
2023-09-09T12:06:24.796Z,51.30
2023-09-09T12:07:24.808Z,51.40
2023-09-09T12:08:25.760Z,49.73
2023-09-09T12:09:24.739Z,49.30
2023-09-09T12:10:24.740Z,47.63
2023-09-09T12:11:24.814Z,50.59
2023-09-09T12:12:24.734Z,51.69
2023-09-09T12:13:24.673Z,50.51
2023-09-09T12:14:25.256Z,53.47
2023-09-09T12:15:24.631Z,50.49
2023-09-09T12:16:24.682Z,50.76
2023-09-09T12:17:24.631Z,51.86
2023-09-09T12:18:24.608Z,51.93
2023-09-09T12:19:24.561Z,50.49
2023-09-09T12:20:24.544Z,51.18
2023-09-09T12:21:24.836Z,50.68
2023-09-09T12:22:24.514Z,51.67
2023-09-09T12:23:24.493Z,51.76
2023-09-09T12:24:24.469Z,52.26
2023-09-09T12:25:24.478Z,51.07
2023-09-09T12:26:24.462Z,52.38
2023-09-09T12:27:24.415Z,51.69
2023-09-09T12:28:24.403Z,52.09
2023-09-09T12:29:24.384Z,51.69
2023-09-09T12:30:24.394Z,50.42
2023-09-09T12:31:24.383Z,50.71
2023-09-09T12:32:24.355Z,51.99
2023-09-09T12:33:24.317Z,51.20
2023-09-09T12:34:24.306Z,51.40
2023-09-09T12:35:24.304Z,50.88
2023-09-09T12:36:24.281Z,47.83
2023-09-09T12:37:24.256Z,49.33
2023-09-09T12:38:24.224Z,50.54
2023-09-09T12:39:24.237Z,51.54
2023-09-09T12:40:24.224Z,51.74
2023-09-09T12:41:24.196Z,49.67
2023-09-09T12:42:24.158Z,50.56
2023-09-09T12:43:24.163Z,50.63
2023-09-09T12:44:24.158Z,52.21
2023-09-09T12:45:24.251Z,51.23
2023-09-09T12:46:24.184Z,51.74
2023-09-09T12:47:24.149Z,52.36
2023-09-09T12:48:24.085Z,51.47
2023-09-09T12:49:24.071Z,51.47
2023-09-09T12:50:24.019Z,53.67
2023-09-09T12:51:24.036Z,53.37
2023-09-09T12:52:23.978Z,54.65
2023-09-09T12:53:23.995Z,54.46